Time;durP1;ratioP1;P1;durP2;ratioP2;P2;SDS_P1;SDS_P2;PMS_P1;PMS_P2;Temp;Humidity;BMP_temperature;BMP_pressure;BME280_temperature;BME280_humidity;BME280_pressure;Samples;Min_cycle;Max_cycle;Signal;HPM_P1;HPM_P2
2022/07/19 00:02:08;;;;;;;4.40;3.50;;;;;;;17.63;66.28;100710.31;130201;1271;108860;-73
2022/07/19 00:05:14;;;;;;;4.70;3.60;;;;;;;17.63;66.22;100717.83;130142;1270;108721;-73
2022/07/19 00:08:20;;;;;;;4.00;3.40;;;;;;;17.63;66.36;100712.46;130260;1270;108670;-74
2022/07/19 00:11:25;;;;;;;4.00;2.90;;;;;;;17.62;66.49;100711.70;130172;1268;108934;-74
2022/07/19 00:14:31;;;;;;;4.50;3.00;;;;;;;17.59;66.61;100715.06;130168;1268;108787;-75
2022/07/19 00:17:39;;;;;;;3.80;3.10;;;;;;;17.58;66.66;100712.83;130184;1268;108811;-74
2022/07/19 00:20:44;;;;;;;4.10;3.30;;;;;;;17.60;66.72;100712.23;130166;1268;108664;-75
2022/07/19 00:23:50;;;;;;;4.40;3.50;;;;;;;17.63;66.81;100712.73;130213;1269;108732;-74
2022/07/19 00:26:55;;;;;;;3.70;3.30;;;;;;;17.66;66.82;100712.45;130217;1268;108773;-74
2022/07/19 00:30:00;;;;;;;4.40;3.10;;;;;;;17.67;66.88;100709.27;130224;1268;108933;-73
2022/07/19 00:33:08;;;;;;;5.40;3.40;;;;;;;17.66;67.00;100710.67;130194;1268;108818;-74
2022/07/19 00:36:13;;;;;;;5.40;3.50;;;;;;;17.64;67.06;100708.91;130251;1270;107047;-73
2022/07/19 00:39:19;;;;;;;5.00;3.20;;;;;;;17.58;67.18;100709.50;130180;1269;108753;-73
2022/07/19 00:42:24;;;;;;;6.00;3.10;;;;;;;17.56;67.29;100713.08;130179;1268;108947;-73
2022/07/19 00:45:30;;;;;;;5.40;3.30;;;;;;;17.58;67.49;100715.27;130173;1270;108888;-74
2022/07/19 00:48:35;;;;;;;4.10;3.00;;;;;;;17.60;67.48;100713.71;130175;1268;108740;-74
2022/07/19 00:51:43;;;;;;;4.00;3.10;;;;;;;17.63;67.56;100712.79;130267;1268;108969;-74
2022/07/19 00:54:49;;;;;;;5.60;4.20;;;;;;;17.64;67.56;100710.15;130223;1268;108127;-74
2022/07/19 00:57:57;;;;;;;4.90;3.90;;;;;;;17.62;67.66;100708.59;130171;1268;107143;-74
2022/07/19 01:01:04;;;;;;;5.90;3.70;;;;;;;17.61;67.82;100710.23;130207;1268;107664;-74
2022/07/19 01:04:11;;;;;;;5.00;3.70;;;;;;;17.58;67.82;100715.22;130237;1268;108533;-73
2022/07/19 01:07:16;;;;;;;4.10;3.10;;;;;;;17.56;68.03;100718.55;130181;1268;108499;-76
2022/07/19 01:10:21;;;;;;;4.70;3.50;;;;;;;17.55;68.08;100715.94;130195;1268;108623;-76
2022/07/19 01:13:27;;;;;;;5.30;3.50;;;;;;;17.56;68.15;100719.05;130202;1268;108460;-75
2022/07/19 01:16:32;;;;;;;4.60;3.30;;;;;;;17.57;68.19;100710.35;130156;1270;108813;-75
2022/07/19 01:19:38;;;;;;;4.30;3.40;;;;;;;17.60;68.18;100708.28;130177;1268;108668;-75
2022/07/19 01:22:44;;;;;;;5.20;3.80;;;;;;;17.61;68.39;100705.84;130214;1268;107696;-75
2022/07/19 01:25:49;;;;;;;5.40;3.70;;;;;;;17.61;68.35;100700.58;130197;1268;108757;-75
2022/07/19 01:28:55;;;;;;;5.30;3.60;;;;;;;17.61;68.29;100703.21;130219;1268;108884;-75
2022/07/19 01:32:00;;;;;;;5.10;3.40;;;;;;;17.58;68.44;100703.48;130206;1268;108816;-76
2022/07/19 01:35:08;;;;;;;4.10;3.20;;;;;;;17.56;68.53;100703.95;130175;1268;108832;-73
2022/07/19 01:38:13;;;;;;;3.60;3.00;;;;;;;17.53;68.65;100703.95;130260;1268;108834;-73
2022/07/19 01:41:18;;;;;;;4.40;3.50;;;;;;;17.52;68.78;100698.54;130203;1268;108907;-73
2022/07/19 01:44:24;;;;;;;4.80;3.50;;;;;;;17.54;68.76;100697.61;130174;1268;109367;-73
2022/07/19 01:47:29;;;;;;;5.40;3.40;;;;;;;17.57;68.78;100699.45;130185;1268;107779;-73
2022/07/19 01:50:34;;;;;;;6.10;3.80;;;;;;;17.57;68.80;100699.59;130171;1268;108653;-73
2022/07/19 01:53:41;;;;;;;5.10;3.70;;;;;;;17.54;68.80;100705.50;130179;1268;108625;-72
2022/07/19 01:56:47;;;;;;;4.60;3.60;;;;;;;17.53;69.04;100706.76;130203;1268;108705;-74
2022/07/19 01:59:52;;;;;;;4.90;3.60;;;;;;;17.50;68.94;100703.61;130189;1268;109049;-74
2022/07/19 02:02:57;;;;;;;7.10;3.10;;;;;;;17.48;69.04;100700.11;130193;1268;108833;-75
2022/07/19 02:06:03;;;;;;;4.20;3.00;;;;;;;17.48;69.12;100703.39;130239;1268;108741;-74
2022/07/19 02:09:08;;;;;;;3.90;3.00;;;;;;;17.46;69.23;100702.69;130215;1268;108742;-75
2022/07/19 02:12:13;;;;;;;5.30;3.30;;;;;;;17.47;69.25;100703.95;130239;1268;108907;-73
2022/07/19 02:15:19;;;;;;;5.30;3.80;;;;;;;17.46;69.32;100700.09;130222;1268;108975;-75
2022/07/19 02:18:24;;;;;;;5.40;3.90;;;;;;;17.45;69.32;100699.53;130167;1268;108951;-76
2022/07/19 02:21:30;;;;;;;4.20;3.50;;;;;;;17.42;69.41;100695.63;130225;1268;109000;-76
2022/07/19 02:24:35;;;;;;;4.10;3.40;;;;;;;17.38;69.54;100693.45;130157;1270;108740;-75
2022/07/19 02:27:41;;;;;;;4.30;3.10;;;;;;;17.33;69.54;100693.98;130124;1268;108762;-74
2022/07/19 02:30:46;;;;;;;6.10;3.30;;;;;;;17.30;69.66;100693.52;130114;1268;109209;-77
2022/07/19 02:33:52;;;;;;;4.10;3.20;;;;;;;17.26;69.77;100693.75;130153;1268;109724;-73
2022/07/19 02:36:57;;;;;;;4.50;3.40;;;;;;;17.25;69.87;100693.88;130165;1268;109165;-77
2022/07/19 02:40:03;;;;;;;5.90;3.60;;;;;;;17.27;69.75;100691.79;130097;1268;108851;-78
2022/07/19 02:43:09;;;;;;;6.00;3.80;;;;;;;17.27;69.85;100690.23;130170;1268;107722;-76
2022/07/19 02:46:14;;;;;;;5.40;3.50;;;;;;;17.24;70.06;100686.44;130149;1268;108732;-77
2022/07/19 02:49:21;;;;;;;4.20;3.80;;;;;;;17.24;70.01;100678.91;130101;1268;108881;-76
2022/07/19 02:52:29;;;;;;;11.90;3.80;;;;;;;17.19;70.27;100684.27;130094;1268;108806;-77
2022/07/19 02:55:34;;;;;;;4.10;3.60;;;;;;;17.16;70.43;100688.54;130198;1268;108539;-77
2022/07/19 02:58:40;;;;;;;4.90;3.40;;;;;;;17.12;70.46;100688.45;130219;1268;109157;-77
2022/07/19 03:01:45;;;;;;;3.70;3.20;;;;;;;17.15;70.60;100691.19;130168;1268;108114;-77
2022/07/19 03:04:51;;;;;;;4.80;3.60;;;;;;;17.21;70.69;100692.23;130231;1268;108033;-77
2022/07/19 03:07:57;;;;;;;5.40;4.00;;;;;;;17.25;70.54;100696.16;130356;1268;108726;-75
2022/07/19 03:11:02;;;;;;;4.40;3.40;;;;;;;17.29;70.76;100698.94;130246;1268;108707;-75
2022/07/19 03:14:07;;;;;;;5.40;3.70;;;;;;;17.32;70.69;100698.06;130199;1268;108779;-75
2022/07/19 03:17:13;;;;;;;4.40;3.60;;;;;;;17.36;70.81;100695.82;130060;1268;108919;-77
2022/07/19 03:20:18;;;;;;;5.40;3.50;;;;;;;17.38;70.78;100696.60;130110;1268;108831;-75
2022/07/19 03:23:24;;;;;;;5.20;3.50;;;;;;;17.39;70.76;100701.68;130121;1268;107601;-75
2022/07/19 03:26:29;;;;;;;6.50;3.70;;;;;;;17.42;70.77;100699.89;130111;1268;109345;-75
2022/07/19 03:29:34;;;;;;;4.40;3.40;;;;;;;17.45;70.75;100705.42;130174;1268;108738;-75
2022/07/19 03:32:40;;;;;;;4.10;3.30;;;;;;;17.47;70.97;100705.75;130146;1268;108669;-76
2022/07/19 03:35:46;;;;;;;4.60;4.00;;;;;;;17.50;70.96;100704.90;130109;1268;108881;-77
2022/07/19 03:38:51;;;;;;;5.10;3.60;;;;;;;17.51;71.07;100699.72;130250;1268;109155;-76
2022/07/19 03:41:57;;;;;;;4.30;3.60;;;;;;;17.50;71.09;100700.04;130194;1268;108643;-75
2022/07/19 03:45:02;;;;;;;4.20;3.40;;;;;;;17.49;71.00;100699.38;130084;1268;108758;-74
2022/07/19 03:48:08;;;;;;;5.10;3.50;;;;;;;17.50;71.04;100703.33;130125;1268;108614;-75
2022/07/19 03:51:13;;;;;;;4.40;3.80;;;;;;;17.53;71.06;100699.13;130151;1268;108549;-74
2022/07/19 03:54:19;;;;;;;5.30;4.00;;;;;;;17.60;71.14;100692.29;130155;1268;108802;-75
2022/07/19 03:57:25;;;;;;;5.80;4.10;;;;;;;17.64;71.04;100695.70;130242;1268;108690;-76
2022/07/19 04:00:30;;;;;;;6.10;3.90;;;;;;;17.69;71.26;100693.80;130152;1268;108749;-74
2022/07/19 04:03:40;;;;;;;6.00;4.40;;;;;;;17.74;71.15;100690.66;130268;1268;108171;-77
2022/07/19 04:06:46;;;;;;;5.50;3.50;;;;;;;17.77;71.06;100692.08;130220;1268;108838;-77
2022/07/19 04:09:51;;;;;;;5.00;3.50;;;;;;;17.81;71.23;100687.03;130210;1268;108067;-76
2022/07/19 04:12:57;;;;;;;5.20;3.90;;;;;;;17.92;71.30;100690.66;130142;1268;108677;-77
2022/07/19 04:16:03;;;;;;;5.40;3.90;;;;;;;18.04;71.22;100686.89;130117;1268;107802;-76
2022/07/19 04:19:08;;;;;;;5.70;4.30;;;;;;;18.17;70.95;100691.39;130145;1268;106955;-76
2022/07/19 04:22:14;;;;;;;5.70;4.30;;;;;;;18.31;70.63;100693.77;130123;1268;108797;-76
2022/07/19 04:25:19;;;;;;;6.20;4.60;;;;;;;18.43;70.40;100695.41;130166;1268;108841;-75
2022/07/19 04:28:25;;;;;;;7.40;4.70;;;;;;;18.56;70.32;100702.39;130196;1268;108906;-75
2022/07/19 04:31:30;;;;;;;5.70;4.50;;;;;;;18.81;70.49;100706.66;130174;1268;108753;-74
2022/07/19 04:34:35;;;;;;;7.50;4.90;;;;;;;19.12;70.42;100705.30;130176;1268;108827;-75
2022/07/19 04:37:41;;;;;;;6.40;4.10;;;;;;;19.33;70.18;100705.84;130187;1268;108959;-75
2022/07/19 04:40:46;;;;;;;6.00;4.70;;;;;;;19.42;69.78;100705.27;130259;1268;108776;-75
2022/07/19 04:43:52;;;;;;;6.90;4.30;;;;;;;19.46;69.74;100703.45;130203;1268;108905;-74
2022/07/19 04:46:57;;;;;;;5.10;3.80;;;;;;;19.48;69.69;100705.09;130180;1268;108875;-74
2022/07/19 04:50:02;;;;;;;6.80;4.50;;;;;;;19.45;69.58;100714.64;130202;1268;108845;-74
2022/07/19 04:53:08;;;;;;;8.50;5.10;;;;;;;19.42;69.45;100718.80;130329;1267;109030;-75
2022/07/19 04:56:14;;;;;;;5.20;4.60;;;;;;;19.39;69.64;100712.48;130272;1267;108721;-75
2022/07/19 04:59:19;;;;;;;6.30;4.70;;;;;;;19.37;69.81;100708.20;130264;1267;108939;-74
2022/07/19 05:02:25;;;;;;;6.50;4.30;;;;;;;19.39;69.81;100705.09;130231;1267;108770;-74
2022/07/19 05:05:30;;;;;;;5.90;3.70;;;;;;;19.43;69.93;100704.56;130293;1267;109516;-75
2022/07/19 05:08:36;;;;;;;5.20;4.10;;;;;;;19.45;69.75;100700.23;130280;1267;108945;-75
2022/07/19 05:11:41;;;;;;;5.50;4.20;;;;;;;19.47;69.56;100701.79;130296;1267;108866;-77
2022/07/19 05:14:47;;;;;;;5.10;4.00;;;;;;;19.47;69.41;100701.49;130266;1267;108927;-76
2022/07/19 05:17:52;;;;;;;4.70;3.70;;;;;;;19.47;69.43;100702.49;130291;1267;108851;-77
2022/07/19 05:20:57;;;;;;;4.90;4.20;;;;;;;19.46;69.36;100701.00;130251;1267;107757;-77
2022/07/19 05:24:03;;;;;;;5.60;4.50;;;;;;;19.43;69.42;100705.31;130314;1267;107208;-76
2022/07/19 05:27:09;;;;;;;6.10;4.30;;;;;;;19.38;69.52;100703.08;130289;1267;108772;-76
2022/07/19 05:30:15;;;;;;;5.90;4.30;;;;;;;19.36;69.53;100700.10;130251;1267;108848;-75
2022/07/19 05:33:20;;;;;;;7.30;4.70;;;;;;;19.34;69.65;100698.15;130266;1267;108860;-76
2022/07/19 05:36:25;;;;;;;7.10;4.90;;;;;;;19.33;69.65;100699.73;130234;1267;108913;-76
2022/07/19 05:39:31;;;;;;;8.20;4.90;;;;;;;19.34;69.90;100697.52;130267;1267;108807;-76
2022/07/19 05:42:36;;;;;;;7.40;4.80;;;;;;;19.38;69.67;100693.26;130372;1267;107116;-78
2022/07/19 05:45:42;;;;;;;6.30;5.20;;;;;;;19.44;69.47;100689.87;130253;1267;108906;-75
2022/07/19 05:48:47;;;;;;;7.10;5.40;;;;;;;19.52;69.44;100686.20;130258;1267;107748;-75
2022/07/19 05:51:53;;;;;;;6.10;5.30;;;;;;;19.59;69.54;100684.95;130257;1267;109145;-74
2022/07/19 05:54:58;;;;;;;6.40;5.20;;;;;;;19.63;69.28;100683.73;130399;1267;109581;-74
2022/07/19 05:58:04;;;;;;;7.20;5.30;;;;;;;19.68;69.43;100684.59;130254;1267;108968;-75
2022/07/19 06:01:19;;;;;;;6.40;4.90;;;;;;;19.72;69.47;100686.80;130302;1267;109062;-75
2022/07/19 06:04:24;;;;;;;6.50;5.30;;;;;;;19.77;69.68;100689.28;130254;1267;107735;-74
2022/07/19 06:07:29;;;;;;;6.90;5.00;;;;;;;19.82;69.47;100693.72;130254;1267;109104;-73
2022/07/19 06:10:36;;;;;;;7.80;4.70;;;;;;;19.88;69.53;100700.95;130187;1267;108938;-76
2022/07/19 06:13:42;;;;;;;6.90;4.70;;;;;;;19.95;69.34;100698.30;130457;1267;108963;-72
2022/07/19 06:16:48;;;;;;;6.60;5.40;;;;;;;20.05;69.40;100699.24;130313;1267;108941;-71
2022/07/19 06:19:54;;;;;;;8.00;5.10;;;;;;;20.15;69.33;100699.98;130304;1267;107195;-73
2022/07/19 06:22:59;;;;;;;5.50;4.50;;;;;;;20.27;69.33;100705.26;130229;1267;109098;-72
2022/07/19 06:26:06;;;;;;;5.80;4.20;;;;;;;20.41;69.23;100709.36;130226;1267;108729;-72
2022/07/19 06:29:11;;;;;;;6.10;4.60;;;;;;;20.52;69.06;100703.48;130341;1267;108460;-79
2022/07/19 06:32:17;;;;;;;7.60;4.20;;;;;;;20.61;68.64;100701.68;130229;1268;109062;-76
2022/07/19 06:35:22;;;;;;;6.10;4.40;;;;;;;20.66;68.58;100703.27;130232;1268;108867;-74
2022/07/19 06:38:27;;;;;;;5.10;3.90;;;;;;;20.71;68.42;100699.14;130195;1267;108779;-74
2022/07/19 06:41:33;;;;;;;5.60;4.10;;;;;;;20.76;68.50;100695.55;130271;1267;107081;-78
2022/07/19 06:44:38;;;;;;;5.20;3.90;;;;;;;20.87;68.41;100695.38;130270;1267;108887;-78
2022/07/19 06:47:44;;;;;;;5.90;3.90;;;;;;;21.02;68.07;100702.30;130214;1267;109047;-78
2022/07/19 06:50:50;;;;;;;4.90;3.60;;;;;;;21.16;68.02;100699.70;130334;1267;108886;-78
2022/07/19 06:53:55;;;;;;;7.40;4.30;;;;;;;21.39;67.79;100696.23;130237;1267;108686;-78
2022/07/19 06:57:01;;;;;;;6.00;4.30;;;;;;;21.66;67.51;100695.24;130375;1267;108997;-77
2022/07/19 07:00:09;;;;;;;6.20;4.50;;;;;;;21.91;67.43;100691.15;130348;1267;108796;-75
2022/07/19 07:03:14;;;;;;;5.60;4.20;;;;;;;22.11;67.27;100695.13;130512;1267;108796;-74
2022/07/19 07:06:20;;;;;;;6.60;3.90;;;;;;;22.29;66.78;100695.87;130431;1267;108719;-73
2022/07/19 07:09:25;;;;;;;5.50;4.20;;;;;;;22.45;66.81;100699.80;130260;1267;107927;-74
2022/07/19 07:12:31;;;;;;;6.30;4.20;;;;;;;22.61;66.75;100702.75;130294;1267;108968;-74
2022/07/19 07:15:38;;;;;;;5.20;4.10;;;;;;;22.79;66.76;100693.39;130237;1267;108692;-74
2022/07/19 07:18:43;;;;;;;6.80;4.10;;;;;;;22.96;66.35;100694.95;130341;1267;107560;-74
2022/07/19 07:21:49;;;;;;;6.10;3.60;;;;;;;23.02;65.77;100696.42;130279;1266;108721;-72
2022/07/19 07:24:54;;;;;;;4.90;3.40;;;;;;;23.05;65.52;100697.33;130326;1267;108938;-72
2022/07/19 07:28:00;;;;;;;4.50;3.20;;;;;;;23.08;65.60;100696.88;130339;1267;108857;-76
2022/07/19 07:31:05;;;;;;;5.20;3.10;;;;;;;23.27;65.13;100693.59;130331;1267;107838;-74
2022/07/19 07:34:11;;;;;;;4.00;3.00;;;;;;;23.63;64.71;100688.91;130315;1267;108729;-74
2022/07/19 07:37:16;;;;;;;4.60;3.10;;;;;;;23.96;63.38;100685.83;130262;1268;108664;-72
2022/07/19 07:40:21;;;;;;;4.30;3.00;;;;;;;24.20;63.17;100685.16;130236;1268;107844;-74
2022/07/19 07:43:27;;;;;;;4.30;2.70;;;;;;;24.40;62.50;100684.41;130405;1267;109010;-74
2022/07/19 07:46:33;;;;;;;5.30;2.70;;;;;;;24.61;61.54;100683.15;130296;1267;109018;-75
2022/07/19 07:49:40;;;;;;;4.60;3.20;;;;;;;24.81;60.99;100684.83;130368;1267;108740;-73
2022/07/19 07:52:46;;;;;;;2.90;2.50;;;;;;;24.93;60.21;100683.80;130347;1267;108733;-74
2022/07/19 07:55:51;;;;;;;2.80;2.40;;;;;;;25.03;60.32;100679.05;130260;1267;108844;-74
2022/07/19 07:58:57;;;;;;;4.70;2.30;;;;;;;25.20;59.93;100679.34;130538;1267;109375;-74
2022/07/19 08:02:02;;;;;;;4.50;2.60;;;;;;;25.34;57.94;100677.40;130223;1267;108892;-72
2022/07/19 08:05:09;;;;;;;7.80;3.70;;;;;;;25.47;57.25;100677.58;130189;1268;108800;-73
2022/07/19 08:08:14;;;;;;;9.30;3.90;;;;;;;25.62;55.70;100680.89;130363;1267;109199;-72
2022/07/19 08:11:20;;;;;;;5.10;3.00;;;;;;;25.72;56.38;100680.80;130234;1268;108988;-72
2022/07/19 08:14:27;;;;;;;4.30;3.10;;;;;;;25.90;56.73;100682.36;130313;1267;109571;-75
2022/07/19 08:17:33;;;;;;;8.60;3.60;;;;;;;26.02;53.73;100682.55;130322;1266;108755;-74
2022/07/19 08:20:38;;;;;;;6.80;3.50;;;;;;;26.02;53.42;100684.13;130317;1267;108406;-74
2022/07/19 08:23:43;;;;;;;5.90;3.00;;;;;;;26.02;54.95;100685.72;130272;1267;108875;-74
2022/07/19 08:26:49;;;;;;;5.40;3.30;;;;;;;26.05;53.34;100679.31;130167;1268;108992;-74
2022/07/19 08:29:54;;;;;;;10.50;4.70;;;;;;;26.03;53.86;100672.56;130203;1267;109193;-75
2022/07/19 08:33:00;;;;;;;5.10;2.70;;;;;;;26.05;53.40;100673.15;130191;1267;108860;-74
2022/07/19 08:36:09;;;;;;;5.90;2.70;;;;;;;26.04;53.77;100672.04;130226;1267;108238;-74
2022/07/19 08:39:14;;;;;;;11.50;5.10;;;;;;;25.99;53.64;100672.16;130294;1267;108246;-75
2022/07/19 08:42:21;;;;;;;3.60;3.00;;;;;;;25.85;53.77;100671.48;130267;1268;108802;-74
2022/07/19 08:45:29;;;;;;;3.70;2.60;;;;;;;25.76;53.34;100667.26;130196;1268;109727;-75
2022/07/19 08:48:36;;;;;;;3.40;2.60;;;;;;;25.77;52.88;100666.85;130225;1268;108783;-74
2022/07/19 08:51:42;;;;;;;3.90;2.70;;;;;;;25.76;50.69;100667.72;130243;1268;108985;-74
2022/07/19 08:54:48;;;;;;;5.10;2.70;;;;;;;25.67;50.68;100670.27;130227;1268;107753;-76
2022/07/19 08:58:01;;;;;;;5.20;2.80;;;;;;;25.59;51.15;100665.69;130162;1268;108952;-75
2022/07/19 09:01:07;;;;;;;3.50;2.60;;;;;;;25.55;51.22;100667.48;130070;1268;108474;-75
2022/07/19 09:04:15;;;;;;;4.20;2.50;;;;;;;25.53;50.71;100668.72;130195;1268;108703;-75
2022/07/19 09:07:21;;;;;;;4.50;2.50;;;;;;;25.60;51.77;100668.70;130247;1267;108734;-75
2022/07/19 09:10:27;;;;;;;5.00;2.90;;;;;;;25.72;51.57;100664.45;130139;1267;258014;-75
2022/07/19 09:13:33;;;;;;;4.30;2.80;;;;;;;25.77;50.25;100659.80;130264;1267;110078;-75
2022/07/19 09:17:01;;;;;;;6.10;2.80;;;;;;;25.77;50.43;100659.76;130267;1266;108691;-75
2022/07/19 09:20:09;;;;;;;4.30;2.60;;;;;;;25.80;50.67;100655.10;130096;1267;108851;-76
2022/07/19 09:23:16;;;;;;;4.90;2.50;;;;;;;25.86;49.90;100657.12;130071;1267;108497;-78
2022/07/19 09:26:22;;;;;;;4.20;2.60;;;;;;;25.77;48.99;100653.52;130036;1267;108753;-74
2022/07/19 09:29:28;;;;;;;3.10;2.50;;;;;;;25.69;49.60;100654.33;130316;1267;108163;-74
2022/07/19 09:32:34;;;;;;;3.00;2.60;;;;;;;25.61;49.70;100658.06;130311;1267;108338;-73
2022/07/19 09:35:42;;;;;;;4.90;3.00;;;;;;;25.54;49.68;100659.73;130682;1267;108320;-77
2022/07/19 09:38:52;;;;;;;3.90;2.80;;;;;;;25.55;49.61;100657.40;130247;1268;108899;-75
2022/07/19 09:41:58;;;;;;;7.10;3.00;;;;;;;25.65;48.98;100652.13;130304;1267;108715;-74
2022/07/19 09:45:07;;;;;;;4.50;3.00;;;;;;;25.75;48.30;100658.33;130171;1268;108719;-78
2022/07/19 09:48:13;;;;;;;6.50;3.30;;;;;;;25.83;47.64;100661.59;130181;1268;108722;-74
2022/07/19 09:51:18;;;;;;;4.30;3.00;;;;;;;25.88;48.12;100657.38;130177;1268;108508;-73
2022/07/19 09:54:26;;;;;;;4.20;3.00;;;;;;;25.91;47.92;100655.77;130158;1268;108716;-73
2022/07/19 09:57:36;;;;;;;5.00;2.90;;;;;;;25.93;47.24;100651.86;130201;1267;108575;-73
2022/07/19 10:00:42;;;;;;;4.30;3.00;;;;;;;25.95;44.62;100654.54;130266;1267;108920;-75
2022/07/19 10:03:49;;;;;;;3.90;2.90;;;;;;;25.99;46.41;100653.89;130340;1267;108652;-75
2022/07/19 10:06:55;;;;;;;5.70;2.90;;;;;;;26.06;46.36;100651.98;130265;1267;108732;-75
2022/07/19 10:10:05;;;;;;;7.90;3.10;;;;;;;26.05;45.96;100651.44;130276;1267;108643;-75
2022/07/19 10:13:11;;;;;;;4.70;3.00;;;;;;;26.09;46.54;100640.51;130577;1267;108811;-75
2022/07/19 10:16:25;;;;;;;3.60;2.90;;;;;;;26.13;45.65;100636.91;130322;1267;107535;-76
2022/07/19 10:19:39;;;;;;;5.90;3.00;;;;;;;26.17;45.90;100636.70;130266;1267;108808;-75
2022/07/19 10:22:45;;;;;;;3.50;2.70;;;;;;;26.21;45.83;100632.55;130306;1267;108463;-75
2022/07/19 10:25:51;;;;;;;3.80;2.90;;;;;;;26.24;45.16;100635.56;130257;1267;107362;-75
2022/07/19 10:29:09;;;;;;;4.40;2.70;;;;;;;26.30;45.05;100634.07;130281;1267;107476;-76
2022/07/19 10:32:16;;;;;;;5.00;2.60;;;;;;;26.35;45.08;100629.34;130248;1267;108712;-74
2022/07/19 10:35:23;;;;;;;3.50;2.70;;;;;;;26.38;44.81;100629.89;130258;1267;108649;-76
2022/07/19 10:38:29;;;;;;;3.30;2.70;;;;;;;26.38;44.68;100626.88;130200;1267;108935;-74
2022/07/19 10:41:34;;;;;;;5.30;3.40;;;;;;;26.41;44.94;100622.10;130246;1267;108856;-74
2022/07/19 10:45:18;;;;;;;4.40;2.80;;;;;;;26.48;44.47;100625.61;130496;1267;108781;-73
2022/07/19 10:48:37;;;;;;;3.00;2.70;;;;;;;26.55;44.51;100622.65;130275;1267;108933;-74
2022/07/19 10:51:46;;;;;;;4.80;2.70;;;;;;;26.63;43.68;100628.54;130359;1267;108934;-75
2022/07/19 10:55:28;;;;;;;3.70;2.60;;;;;;;26.69;42.24;100625.67;130211;1267;108508;-76
2022/07/19 10:58:49;;;;;;;4.50;2.50;;;;;;;26.70;42.38;100626.95;130273;1267;108983;-74
2022/07/19 11:02:00;;;;;;;5.40;2.50;;;;;;;26.74;41.83;100626.73;130279;1267;108894;-76
2022/07/19 11:05:07;;;;;;;3.30;2.60;;;;;;;26.81;41.30;100626.13;130195;1267;108952;-76
2022/07/19 11:08:12;;;;;;;4.20;2.90;;;;;;;26.82;40.99;100619.69;130192;1267;108663;-74
2022/07/19 11:11:20;;;;;;;3.00;2.50;;;;;;;26.88;42.34;100620.53;130240;1266;108696;-75
2022/07/19 11:14:25;;;;;;;3.30;2.60;;;;;;;26.93;42.00;100616.83;130227;1267;108756;-77
2022/07/19 11:17:31;;;;;;;4.70;3.00;;;;;;;26.98;42.17;100613.77;130201;1267;108725;-76
2022/07/19 11:20:37;;;;;;;3.00;2.50;;;;;;;26.96;40.11;100610.23;130243;1267;108738;-75
2022/07/19 11:23:46;;;;;;;4.50;2.80;;;;;;;26.97;41.63;100613.65;130238;1267;108696;-76
2022/07/19 11:26:52;;;;;;;2.70;2.30;;;;;;;27.04;41.19;100607.38;130252;1267;107759;-76
2022/07/19 11:29:58;;;;;;;4.10;2.70;;;;;;;27.10;39.75;100604.66;130382;1267;108969;-75
2022/07/19 11:33:06;;;;;;;3.80;2.70;;;;;;;27.15;39.88;100599.41;130245;1267;107725;-75
2022/07/19 11:36:15;;;;;;;3.50;2.60;;;;;;;27.18;39.95;100594.95;130410;1267;108620;-75
2022/07/19 11:39:20;;;;;;;3.70;2.70;;;;;;;27.26;40.47;100590.36;130227;1267;108607;-75
2022/07/19 11:42:38;;;;;;;3.80;2.60;;;;;;;27.32;39.97;100591.05;130259;1267;108901;-76
2022/07/19 11:45:48;;;;;;;2.50;2.20;;;;;;;27.40;39.46;100586.04;130206;1267;108830;-76
2022/07/19 11:48:58;;;;;;;4.70;2.80;;;;;;;27.49;40.71;100580.15;130153;1267;108760;-75
2022/07/19 11:52:03;;;;;;;4.10;2.50;;;;;;;27.53;40.02;100574.83;130238;1267;109830;-77
2022/07/19 11:55:10;;;;;;;5.20;2.60;;;;;;;27.54;39.77;100572.75;130296;1267;108651;-76
2022/07/19 11:58:16;;;;;;;2.80;2.50;;;;;;;27.58;39.70;100573.89;130248;1267;108783;-76
2022/07/19 12:01:29;;;;;;;3.00;2.60;;;;;;;27.62;38.93;100573.11;130215;1267;107695;-76
2022/07/19 12:04:39;;;;;;;3.40;2.40;;;;;;;27.69;38.42;100571.48;130341;1267;108579;-76
2022/07/19 12:07:49;;;;;;;3.40;2.80;;;;;;;27.75;38.41;100565.02;130310;1267;108676;-76
2022/07/19 12:10:54;;;;;;;4.20;2.70;;;;;;;27.79;38.24;100563.12;130458;1267;108751;-75
2022/07/19 12:14:00;;;;;;;4.60;2.50;;;;;;;27.81;38.38;100558.25;130267;1267;108800;-76
2022/07/19 12:17:14;;;;;;;3.10;2.50;;;;;;;27.86;39.23;100560.51;130299;1267;108934;-75
2022/07/19 12:20:19;;;;;;;3.10;2.60;;;;;;;27.93;38.94;100562.18;130312;1267;108829;-76
2022/07/19 12:23:24;;;;;;;3.60;2.50;;;;;;;27.98;39.05;100557.34;130271;1267;108861;-76
2022/07/19 12:26:30;;;;;;;3.10;2.50;;;;;;;28.00;38.71;100554.06;130243;1267;107839;-76
2022/07/19 12:29:37;;;;;;;2.60;2.20;;;;;;;28.03;38.94;100551.23;130260;1267;107572;-76
2022/07/19 12:32:45;;;;;;;3.60;2.50;;;;;;;28.02;38.74;100545.85;130296;1267;108988;-76
2022/07/19 12:35:50;;;;;;;4.20;2.90;;;;;;;28.03;37.25;100545.02;130217;1267;108572;-76
2022/07/19 12:38:56;;;;;;;3.20;2.70;;;;;;;28.00;36.23;100546.05;130462;1267;108931;-77
2022/07/19 12:42:04;;;;;;;3.60;2.40;;;;;;;28.01;38.07;100542.07;130331;1267;108843;-76
2022/07/19 12:45:12;;;;;;;3.40;2.50;;;;;;;28.06;38.41;100549.73;130257;1267;108941;-76
2022/07/19 12:48:18;;;;;;;3.40;2.30;;;;;;;28.16;37.39;100545.95;130323;1267;108792;-75
2022/07/19 12:51:24;;;;;;;4.50;2.70;;;;;;;28.17;36.73;100539.48;130262;1267;108765;-73
2022/07/19 12:54:29;;;;;;;4.00;2.80;;;;;;;28.18;36.19;100532.58;130255;1267;108788;-73
2022/07/19 12:57:35;;;;;;;4.40;2.80;;;;;;;28.17;36.12;100531.15;130181;1267;108826;-72
2022/07/19 13:00:42;;;;;;;3.20;2.80;;;;;;;28.19;36.35;100526.45;130199;1268;108687;-73
2022/07/19 13:03:48;;;;;;;3.10;2.70;;;;;;;28.19;36.00;100527.86;130211;1267;108895;-74
2022/07/19 13:06:55;;;;;;;6.10;2.80;;;;;;;28.25;37.08;100520.61;130172;1267;108779;-75
2022/07/19 13:10:01;;;;;;;3.10;2.60;;;;;;;28.31;37.22;100519.83;130196;1267;107724;-75
2022/07/19 13:13:06;;;;;;;3.80;2.70;;;;;;;28.34;37.32;100516.10;130246;1267;108727;-75
2022/07/19 13:16:12;;;;;;;2.40;2.20;;;;;;;28.35;36.60;100514.46;130228;1267;108889;-77
2022/07/19 13:19:17;;;;;;;4.70;2.60;;;;;;;28.33;36.55;100514.29;130305;1267;109097;-76
2022/07/19 13:22:22;;;;;;;2.90;2.50;;;;;;;28.33;36.64;100508.09;130295;1267;108674;-77
2022/07/19 13:25:28;;;;;;;4.70;2.80;;;;;;;28.34;36.88;100510.47;130269;1266;108621;-76
2022/07/19 13:28:34;;;;;;;3.10;2.50;;;;;;;28.34;37.12;100514.58;130226;1267;108562;-76
2022/07/19 13:31:40;;;;;;;3.20;2.50;;;;;;;28.37;36.82;100514.05;130240;1266;107680;-75
2022/07/19 13:34:45;;;;;;;2.80;2.50;;;;;;;28.37;36.07;100513.12;130239;1266;109173;-77
2022/07/19 13:37:51;;;;;;;4.20;2.60;;;;;;;28.38;35.74;100512.35;130238;1267;108833;-76
2022/07/19 13:40:56;;;;;;;3.70;2.50;;;;;;;28.38;36.38;100511.54;130258;1267;109161;-76
2022/07/19 13:44:02;;;;;;;3.30;2.50;;;;;;;28.41;35.51;100512.80;130268;1267;108927;-76
2022/07/19 13:47:08;;;;;;;4.20;2.60;;;;;;;28.42;35.33;100506.78;130259;1267;108502;-76
2022/07/19 13:50:13;;;;;;;3.20;2.70;;;;;;;28.42;35.09;100506.98;130290;1267;108827;-77
2022/07/19 13:53:18;;;;;;;3.10;2.80;;;;;;;28.47;35.37;100503.11;130437;1267;108903;-77
2022/07/19 13:56:24;;;;;;;3.00;2.40;;;;;;;28.46;34.85;100507.73;130252;1267;108757;-77
2022/07/19 13:59:31;;;;;;;3.70;2.70;;;;;;;28.46;34.79;100501.42;130267;1267;108126;-75
2022/07/19 14:02:37;;;;;;;3.50;2.60;;;;;;;28.46;34.80;100501.09;130420;1264;108625;-76
2022/07/19 14:05:43;;;;;;;2.80;2.40;;;;;;;28.50;35.56;100501.13;130332;1267;108587;-76
2022/07/19 14:08:48;;;;;;;3.80;2.40;;;;;;;28.54;35.71;100502.20;130233;1267;107892;-77